Station Historical Data
Daily Summary for May 12, 2012 Units:  Metric    English   Both
« Previous Day
Next Day »
Daily Weekly Monthly Yearly Custom
  High: Low: Average:
Temperature: 24.9 °C 15.7 °C 18.6 °C
Dew Point: 18.2 °C 11.1 °C 14.8 °C
Humidity: 93% 59% 79%
Wind Speed: 20.9km/h 0km/h 4.7km/h
Wind Gust: 29km/h - -
Wind- - ESE
Pressure: 1021.2 hPa 1016.8 hPa -
Precipitation: 19.05 mm    
Historical Graphs
 
 
Tabular Data for May 12, 2012
Time Temperature Dew Point Pressure Wind Wind Speed Wind Gust Humidity Rainfall Rate (Hourly) Conditions
00:00 16.2 °C 12.7 °C 1019.2 hPa Calm   1.6 km/h 80% 0 mm
00:05 16 °C 13.1 °C 1019.2 hPa NNW 1.6 km/h 3.2 km/h 83% 0 mm
00:10 15.8 °C 12.9 °C 1019.2 hPa North 1.6 km/h 3.2 km/h 83% 0 mm
00:13 15.7 °C 12.8 °C 1019.2 hPa North 3.2 km/h 3.2 km/h 83% 0 mm
00:18 15.7 °C 12.7 °C 1019.5 hPa NNW 1.6 km/h 3.2 km/h 82% 0 mm
00:23 15.8 °C 12.7 °C 1019.2 hPa Calm   1.6 km/h 82% 0 mm
00:28 15.8 °C 12.4 °C 1019.2 hPa Calm   1.6 km/h 80% 0 mm
00:33 16 °C 12.4 °C 1019.2 hPa Calm     79% 0 mm
00:38 16 °C 11.8 °C 1019.2 hPa NNE 3.2 km/h 3.2 km/h 76% 0 mm
00:43 16.4 °C 12 °C 1019.2 hPa NNE 3.2 km/h 3.2 km/h 75% 0 mm
00:48 16.7 °C 11.8 °C 1019.2 hPa NNE 1.6 km/h 3.2 km/h 73% 0 mm
00:53 16.8 °C 11.8 °C 1019.2 hPa Calm   3.2 km/h 72% 0 mm
00:58 16.7 °C 11.8 °C 1019.2 hPa Calm   1.6 km/h 73% 0 mm
01:03 16.5 °C 12.1 °C 1019.2 hPa NNE 1.6 km/h 1.6 km/h 75% 0 mm
01:08 16.2 °C 12.5 °C 1019.2 hPa Calm   1.6 km/h 79% 0 mm
01:13 15.9 °C 12.1 °C 1019.2 hPa North 3.2 km/h 3.2 km/h 78% 0 mm
01:18 15.8 °C 12.4 °C 1019.2 hPa NNW 1.6 km/h 1.6 km/h 80% 0 mm
01:23 15.8 °C 12.2 °C 1019.2 hPa Calm   1.6 km/h 79% 0 mm
01:28 15.8 °C 11.6 °C 1019.2 hPa North 1.6 km/h 3.2 km/h 76% 0 mm
01:33 16.2 °C 11.1 °C 1018.8 hPa NNE 4.8 km/h 4.8 km/h 72% 0 mm
01:38 16.5 °C 11.2 °C 1018.8 hPa NNE 3.2 km/h 3.2 km/h 71% 0 mm
01:43 16.6 °C 11.3 °C 1018.8 hPa NE 3.2 km/h 3.2 km/h 71% 0 mm
01:48 16.7 °C 11.2 °C 1018.8 hPa NE 1.6 km/h 4.8 km/h 70% 0 mm
01:53 16.8 °C 11.3 °C 1018.8 hPa NNE 3.2 km/h 3.2 km/h 70% 0 mm
01:58 16.9 °C 11.4 °C 1018.8 hPa NE 1.6 km/h 3.2 km/h 70% 0 mm
02:03 16.9 °C 11.2 °C 1018.8 hPa Calm   1.6 km/h 69% 0 mm
02:08 17 °C 11.5 °C 1018.8 hPa Calm     70% 0 mm
02:13 16.9 °C 11.4 °C 1018.8 hPa Calm     70% 0 mm
02:18 16.8 °C 11.3 °C 1018.8 hPa NE 1.6 km/h 1.6 km/h 70% 0 mm
02:23 16.9 °C 11.6 °C 1018.8 hPa NNE 1.6 km/h 1.6 km/h 71% 0 mm
02:28 16.7 °C 11.6 °C 1018.5 hPa North 1.6 km/h 3.2 km/h 72% 0 mm
02:34 16.6 °C 11.9 °C 1018.5 hPa NNE 1.6 km/h 3.2 km/h 74% 0 mm
02:39 16.4 °C 11.8 °C 1018.8 hPa North 1.6 km/h 3.2 km/h 74% 0 mm
02:44 16.4 °C 11.6 °C 1018.5 hPa NNE 1.6 km/h 3.2 km/h 73% 0 mm
02:49 16.4 °C 11.8 °C 1018.8 hPa NNE 1.6 km/h 1.6 km/h 74% 0 mm
02:54 16.4 °C 11.6 °C 1018.8 hPa NNE 1.6 km/h 3.2 km/h 73% 0 mm
02:59 16.7 °C 11.2 °C 1018.8 hPa East 3.2 km/h 6.4 km/h 70% 0 mm
03:04 17.2 °C 11.1 °C 1018.8 hPa ENE 4.8 km/h 6.4 km/h 67% 0 mm
03:09 17.4 °C 11.3 °C 1018.8 hPa Calm   4.8 km/h 67% 0 mm
03:14 17.5 °C 11.1 °C 1018.8 hPa ENE 3.2 km/h 3.2 km/h 66% 0 mm
03:19 17.6 °C 11.4 °C 1018.8 hPa ENE 1.6 km/h 3.2 km/h 67% 0 mm
03:24 17.6 °C 11.8 °C 1018.8 hPa East 1.6 km/h 1.6 km/h 69% 0 mm
03:29 17.4 °C 11.4 °C 1018.8 hPa East 1.6 km/h 1.6 km/h 68% 0 mm
03:34 17.4 °C 11.7 °C 1018.8 hPa ENE 3.2 km/h 3.2 km/h 69% 0 mm
03:39 17.4 °C 11.4 °C 1018.8 hPa ENE 4.8 km/h 4.8 km/h 68% 0 mm
03:44 17.4 °C 11.5 °C 1018.5 hPa NE 3.2 km/h 4.8 km/h 68% 0 mm
03:49 17.4 °C 11.3 °C 1018.5 hPa ENE 3.2 km/h 6.4 km/h 67% 0 mm
03:54 17.4 °C 11.4 °C 1018.5 hPa ENE 3.2 km/h 4.8 km/h 68% 0 mm
03:59 17.3 °C 11.6 °C 1018.5 hPa ESE 3.2 km/h 6.4 km/h 69% 0 mm
04:04 17.3 °C 11.8 °C 1018.5 hPa ENE 3.2 km/h 4.8 km/h 70% 0 mm
04:09 17.2 °C 11.7 °C 1018.5 hPa East 1.6 km/h 6.4 km/h 70% 0 mm
04:14 17.2 °C 11.7 °C 1018.5 hPa ENE 1.6 km/h 6.4 km/h 70% 0 mm
04:19 17.2 °C 11.9 °C 1018.5 hPa East 3.2 km/h 6.4 km/h 71% 0 mm
04:24 17.1 °C 11.8 °C 1018.5 hPa ESE 4.8 km/h 4.8 km/h 71% 0 mm
04:29 17.1 °C 11.9 °C 1018.5 hPa SE 3.2 km/h 4.8 km/h 72% 0 mm
04:34 17 °C 12.1 °C 1018.5 hPa ESE 3.2 km/h 4.8 km/h 73% 0 mm
04:39 16.9 °C 12.1 °C 1018.5 hPa ESE 4.8 km/h 6.4 km/h 73% 0 mm
04:44 17 °C 11.9 °C 1018.5 hPa SE 4.8 km/h 8 km/h 72% 0 mm
04:49 17 °C 12.1 °C 1018.5 hPa ESE 4.8 km/h 6.4 km/h 73% 0 mm
04:54 16.9 °C 12.1 °C 1018.5 hPa ESE 4.8 km/h 6.4 km/h 73% 0 mm
04:59 16.9 °C 12.2 °C 1018.5 hPa ESE 4.8 km/h 4.8 km/h 74% 0 mm
05:04 16.8 °C 12.2 °C 1018.5 hPa ESE 3.2 km/h 4.8 km/h 74% 0 mm
05:09 16.8 °C 12.1 °C 1018.5 hPa ESE 1.6 km/h 3.2 km/h 74% 0 mm
05:14 16.8 °C 12.3 °C 1018.5 hPa East 3.2 km/h 3.2 km/h 75% 0 mm
05:19 16.8 °C 12.1 °C 1018.5 hPa ESE 3.2 km/h 3.2 km/h 74% 0 mm
05:24 16.8 °C 12.3 °C 1018.5 hPa ESE 1.6 km/h 3.2 km/h 75% 0 mm
05:29 16.8 °C 12.2 °C 1018.8 hPa East 3.2 km/h 4.8 km/h 74% 0 mm
05:34 16.9 °C 12.2 °C 1018.8 hPa ESE 1.6 km/h 4.8 km/h 74% 0 mm
05:39 16.9 °C 12.2 °C 1018.8 hPa ESE 1.6 km/h 3.2 km/h 74% 0 mm
05:44 16.8 °C 12.4 °C 1018.8 hPa ESE 1.6 km/h 3.2 km/h 75% 0 mm
05:49 16.8 °C 12.3 °C 1018.8 hPa SE 4.8 km/h 4.8 km/h 75% 0 mm
05:54 16.7 °C 12.3 °C 1018.8 hPa SE 3.2 km/h 4.8 km/h 75% 0 mm
05:59 16.7 °C 12.4 °C 1018.8 hPa SE 4.8 km/h 4.8 km/h 76% 0 mm
06:04 16.7 °C 12.4 °C 1018.8 hPa ESE 3.2 km/h 6.4 km/h 76% 0 mm
06:09 16.7 °C 12.4 °C 1018.8 hPa SE 3.2 km/h 4.8 km/h 76% 0 mm
06:14 16.7 °C 12.4 °C 1018.8 hPa SE 4.8 km/h 6.4 km/h 76% 0 mm
06:19 16.7 °C 12.5 °C 1019.2 hPa SE 3.2 km/h 3.2 km/h 76% 0 mm
06:24 16.8 °C 12.5 °C 1019.2 hPa SE 1.6 km/h 3.2 km/h 76% 0 mm
06:30 16.9 °C 12.4 °C 1019.2 hPa ESE 3.2 km/h 4.8 km/h 75% 0 mm
06:35 17 °C 12.6 °C 1019.2 hPa ESE 4.8 km/h 6.4 km/h 75% 0 mm
06:40 17.2 °C 12.6 °C 1019.2 hPa East 3.2 km/h 6.4 km/h 74% 0 mm
06:45 17.2 °C 12.7 °C 1019.2 hPa East 1.6 km/h 3.2 km/h 75% 0 mm
06:50 17.1 °C 12.7 °C 1019.5 hPa ESE 1.6 km/h 4.8 km/h 75% 0 mm
06:55 17.1 °C 12.7 °C 1019.5 hPa ESE 3.2 km/h 4.8 km/h 75% 0 mm
07:00 17.2 °C 12.5 °C 1019.5 hPa East 3.2 km/h 4.8 km/h 74% 0 mm
07:05 17.2 °C 12.5 °C 1019.5 hPa ESE 1.6 km/h 3.2 km/h 74% 0 mm
07:10 17.2 °C 12.5 °C 1019.5 hPa Calm   1.6 km/h 74% 0 mm
07:15 17.1 °C 12.4 °C 1019.9 hPa East 1.6 km/h 3.2 km/h 74% 0 mm
07:16 17.1 °C 12.4 °C 1019.9 hPa East 3.2 km/h 3.2 km/h 74% 0 mm
07:21 17.1 °C 12.6 °C 1019.9 hPa Calm   1.6 km/h 75% 0 mm
07:26 16.9 °C 12.5 °C 1019.9 hPa Calm     75% 0 mm
07:31 16.9 °C 12.7 °C 1019.9 hPa ENE 3.2 km/h 3.2 km/h 76% 0 mm
07:36 16.8 °C 12.8 °C 1019.9 hPa Calm   3.2 km/h 77% 0 mm
07:41 16.7 °C 13.2 °C 1019.9 hPa NNE 1.6 km/h 1.6 km/h 80% 0 mm
07:46 16.3 °C 13.3 °C 1019.9 hPa NNW 1.6 km/h 3.2 km/h 82% 0 mm
07:51 16.2 °C 13.3 °C 1019.9 hPa Calm   1.6 km/h 83% 0 mm
07:56 16.1 °C 13.3 °C 1019.9 hPa North 1.6 km/h 1.6 km/h 84% 0 mm
08:01 15.9 °C 13.1 °C 1019.9 hPa North 1.6 km/h 1.6 km/h 83% 0 mm
08:06 16 °C 13.3 °C 1019.9 hPa North 3.2 km/h 4.8 km/h 84% 0 mm
08:12 15.8 °C 13.3 °C 1019.9 hPa NE 6.4 km/h 9.7 km/h 85% 0 mm
08:17 15.9 °C 12.9 °C 1019.9 hPa East 3.2 km/h 8 km/h 82% 0 mm
08:22 16.3 °C 13.2 °C 1020.2 hPa SW 3.2 km/h 4.8 km/h 82% 0 mm
08:27 16.4 °C 13.3 °C 1020.5 hPa SW 1.6 km/h 3.2 km/h 82% 0 mm
08:32 16.6 °C 13.4 °C 1020.5 hPa SW 1.6 km/h 3.2 km/h 82% 0 mm
08:37 16.6 °C 13.7 °C 1020.5 hPa Calm     83% 0 mm
08:42 16.6 °C 13.5 °C 1020.5 hPa SE 1.6 km/h 1.6 km/h 82% 0 mm
08:47 16.7 °C 13.9 °C 1020.5 hPa ESE 1.6 km/h 1.6 km/h 84% 0 mm
08:52 16.7 °C 13.8 °C 1020.5 hPa Calm   1.6 km/h 83% 0 mm
08:57 16.8 °C 13.9 °C 1020.9 hPa Calm     83% 0 mm
09:02 16.9 °C 14.6 °C 1020.9 hPa East 1.6 km/h 1.6 km/h 86% 0 mm
09:07 16.7 °C 14.7 °C 1020.9 hPa North 3.2 km/h 3.2 km/h 88% 0 mm
09:12 16.4 °C 14.4 °C 1020.9 hPa North 3.2 km/h 3.2 km/h 88% 0 mm
09:17 16.3 °C 14.4 °C 1020.9 hPa North 1.6 km/h 3.2 km/h 89% 0 mm
09:22 16.2 °C 14.3 °C 1020.9 hPa NW 3.2 km/h 4.8 km/h 89% 0 mm
09:27 16.1 °C 14.4 °C 1020.9 hPa WNW 3.2 km/h 4.8 km/h 90% 0 mm
09:32 16.1 °C 14.2 °C 1021.2 hPa WNW 3.2 km/h 4.8 km/h 89% 0 mm
09:37 16.1 °C 14.2 °C 1021.2 hPa NNE 1.6 km/h 3.2 km/h 89% 0 mm
09:42 16.1 °C 14.2 °C 1021.2 hPa North 3.2 km/h 3.2 km/h 89% 0 mm
09:47 16.1 °C 14.3 °C 1021.2 hPa North 3.2 km/h 4.8 km/h 89% 0 mm
09:52 16.1 °C 14.3 °C 1021.2 hPa NNE 3.2 km/h 4.8 km/h 89% 0 mm
09:57 16.2 °C 14.3 °C 1021.2 hPa North 3.2 km/h 3.2 km/h 89% 0 mm
10:02 16.2 °C 14.3 °C 1021.2 hPa North 1.6 km/h 6.4 km/h 89% 0 mm
10:07 16.2 °C 14.4 °C 1021.2 hPa NNE 1.6 km/h 3.2 km/h 89% 0 mm
10:12 16.2 °C 14.4 °C 1020.9 hPa NNE 3.2 km/h 8 km/h 89% 0 mm
10:17 16.3 °C 14.3 °C 1020.9 hPa NE 3.2 km/h 4.8 km/h 88% 0 mm
10:22 16.4 °C 14.4 °C 1020.9 hPa NNE 3.2 km/h 6.4 km/h 88% 0 mm
10:27 16.5 °C 14.3 °C 1020.9 hPa NE 6.4 km/h 6.4 km/h 87% 0 mm
10:32 16.6 °C 14.4 °C 1020.9 hPa North 1.6 km/h 6.4 km/h 87% 0 mm
10:37 16.7 °C 14.3 °C 1020.9 hPa NE 3.2 km/h 8 km/h 86% 0 mm
10:42 16.8 °C 14.6 °C 1020.9 hPa North 1.6 km/h 8 km/h 87% 0 mm
10:48 16.8 °C 14.7 °C 1020.9 hPa NNE 1.6 km/h 6.4 km/h 87% 0 mm
10:53 16.8 °C 14.7 °C 1020.9 hPa NNE 4.8 km/h 8 km/h 87% 0 mm
10:58 16.9 °C 14.7 °C 1020.9 hPa NNE 3.2 km/h 4.8 km/h 87% 0 mm
11:03 16.9 °C 14.8 °C 1020.9 hPa NNE 4.8 km/h 8 km/h 87% 0 mm
11:08 17 °C 14.8 °C 1020.9 hPa NNE 4.8 km/h 6.4 km/h 87% 0 mm
11:13 17.1 °C 14.9 °C 1020.5 hPa NE 6.4 km/h 8 km/h 87% 0 mm
11:18 17.3 °C 15 °C 1020.5 hPa NE 8 km/h 9.7 km/h 86% 0 mm
11:23 17.6 °C 15.1 °C 1020.2 hPa North 9.7 km/h 9.7 km/h 85% 0 mm
11:28 17.9 °C 14.8 °C 1020.2 hPa NE 16.1 km/h 16.1 km/h 82% 0 mm
11:33 18.2 °C 14.7 °C 1020.2 hPa NE 4.8 km/h 14.5 km/h 80% 0 mm
11:38 18.4 °C 14.9 °C 1020.5 hPa ENE 9.7 km/h 14.5 km/h 80% 0 mm
11:43 18.6 °C 14.7 °C 1020.2 hPa NE 8 km/h 9.7 km/h 78% 0 mm
11:48 18.7 °C 14.6 °C 1020.5 hPa NNE 6.4 km/h 12.9 km/h 77% 0 mm
11:53 18.9 °C 14.8 °C 1020.2 hPa NE 8 km/h 14.5 km/h 77% 0 mm
11:58 19.1 °C 15 °C 1020.2 hPa NE 6.4 km/h 9.7 km/h 77% 0 mm
12:03 19.2 °C 15.1 °C 1020.2 hPa East 4.8 km/h 11.3 km/h 77% 0 mm
12:08 19.2 °C 14.9 °C 1020.2 hPa ENE 4.8 km/h 14.5 km/h 76% 0 mm
12:13 19.2 °C 15.1 °C 1020.2 hPa NE 8 km/h 11.3 km/h 77% 0 mm
12:18 19.2 °C 15.1 °C 1020.2 hPa NE 12.9 km/h 12.9 km/h 77% 0 mm
12:24 19.2 °C 15.3 °C 1020.2 hPa NE 4.8 km/h 11.3 km/h 78% 0 mm
12:29 19.2 °C 15.1 °C 1020.2 hPa NNE 8 km/h 12.9 km/h 77% 0 mm
12:34 19.3 °C 15.2 °C 1019.9 hPa NE 12.9 km/h 14.5 km/h 77% 0 mm
12:39 19.6 °C 15.6 °C 1019.9 hPa ENE 4.8 km/h 9.7 km/h 78% 0 mm
12:44 19.7 °C 15.6 °C 1019.9 hPa NE 9.7 km/h 12.9 km/h 77% 0 mm
12:49 19.8 °C 15.7 °C 1019.9 hPa ENE 8 km/h 12.9 km/h 77% 0 mm
12:54 20 °C 15.4 °C 1019.5 hPa ENE 6.4 km/h 14.5 km/h 75% 0 mm
12:59 20.1 °C 15.3 °C 1019.5 hPa NE 8 km/h 11.3 km/h 74% 0 mm
13:04 20.2 °C 15.7 °C 1019.5 hPa East 6.4 km/h 9.7 km/h 75% 0 mm
13:09 20.5 °C 15.7 °C 1019.5 hPa NE 11.3 km/h 14.5 km/h 74% 0 mm
13:14 20.8 °C 16 °C 1019.2 hPa ESE 9.7 km/h 12.9 km/h 74% 0 mm
13:19 21.1 °C 16.4 °C 1019.2 hPa NE 8 km/h 14.5 km/h 75% 0 mm
13:24 21.2 °C 16 °C 1019.2 hPa East 8 km/h 11.3 km/h 72% 0 mm
13:29 21.6 °C 16.3 °C 1019.2 hPa ENE 12.9 km/h 12.9 km/h 72% 0 mm
13:34 21.7 °C 16.4 °C 1018.8 hPa East 11.3 km/h 14.5 km/h 72% 0 mm
13:39 21.9 °C 16.4 °C 1018.8 hPa ENE 8 km/h 16.1 km/h 71% 0 mm
13:44 22.4 °C 16.9 °C 1018.8 hPa East 11.3 km/h 20.9 km/h 71% 0 mm
13:49 22.7 °C 16.7 °C 1018.8 hPa East 12.9 km/h 17.7 km/h 69% 0 mm
13:54 23.1 °C 17.1 °C 1018.5 hPa ESE 9.7 km/h 14.5 km/h 69% 0 mm
13:59 23.4 °C 16.9 °C 1018.8 hPa SE 9.7 km/h 17.7 km/h 67% 0 mm
14:04 23.8 °C 17.3 °C 1018.8 hPa ESE 14.5 km/h 14.5 km/h 67% 0 mm
14:09 24 °C 17 °C 1018.5 hPa ESE 12.9 km/h 24.1 km/h 65% 0 mm
14:14 24.4 °C 16.7 °C 1018.5 hPa ESE 17.7 km/h 20.9 km/h 62% 0 mm
14:19 24.3 °C 16.3 °C 1018.5 hPa ESE 19.3 km/h 29 km/h 61% 0 mm
14:24 24.2 °C 16.2 °C 1018.5 hPa East 14.5 km/h 22.5 km/h 61% 0 mm
14:29 24.2 °C 16.7 °C 1018.5 hPa SE 12.9 km/h 22.5 km/h 63% 0 mm
14:34 24.2 °C 17 °C 1018.5 hPa SE 9.7 km/h 14.5 km/h 64% 0 mm
14:39 24.2 °C 16.7 °C 1018.2 hPa SE 9.7 km/h 19.3 km/h 63% 0 mm
14:44 24.3 °C 16.8 °C 1018.2 hPa SE 9.7 km/h 12.9 km/h 63% 0 mm
14:49 24.3 °C 16.8 °C 1018.2 hPa SE 14.5 km/h 22.5 km/h 63% 0 mm
14:54 24.6 °C 16.6 °C 1018.2 hPa ESE 12.9 km/h 20.9 km/h 61% 0 mm
15:00 24.9 °C 16.7 °C 1017.8 hPa ESE 20.9 km/h 24.1 km/h 60% 0 mm
15:05 24.9 °C 16.4 °C 1017.5 hPa ESE 16.1 km/h 25.7 km/h 59% 0 mm
15:10 24.9 °C 16.7 °C 1017.8 hPa South 19.3 km/h 20.9 km/h 60% 0 mm
15:15 24.7 °C 16.4 °C 1017.8 hPa ESE 19.3 km/h 27.4 km/h 60% 0 mm
15:20 24.3 °C 16.3 °C 1017.8 hPa SE 12.9 km/h 19.3 km/h 61% 0 mm
15:25 24 °C 16.3 °C 1017.8 hPa SE 14.5 km/h 19.3 km/h 62% 0 mm
15:30 23.7 °C 16.2 °C 1017.8 hPa South 14.5 km/h 20.9 km/h 63% 0 mm
15:35 23.4 °C 16.2 °C 1017.5 hPa SE 6.4 km/h 14.5 km/h 64% 0 mm
15:40 23.3 °C 16.2 °C 1017.8 hPa SSE 14.5 km/h 16.1 km/h 64% 0 mm
15:45 23.3 °C 16.3 °C 1017.5 hPa SSE 9.7 km/h 14.5 km/h 65% 0 mm
15:50 23.3 °C 16.3 °C 1017.5 hPa SE 8 km/h 19.3 km/h 65% 0 mm
15:55 23.3 °C 16.3 °C 1017.5 hPa SE 12.9 km/h 24.1 km/h 65% 0 mm
16:00 23.3 °C 16.3 °C 1017.5 hPa SE 9.7 km/h 16.1 km/h 65% 0 mm
16:05 23.3 °C 16.6 °C 1017.5 hPa SE 9.7 km/h 14.5 km/h 66% 0 mm
16:10 23.4 °C 16.7 °C 1017.2 hPa ESE 14.5 km/h 14.5 km/h 66% 0 mm
16:15 23.5 °C 17 °C 1017.2 hPa SE 8 km/h 16.1 km/h 67% 0 mm
16:20 23.6 °C 17.1 °C 1017.2 hPa SE 8 km/h 12.9 km/h 67% 0 mm
16:25 23.7 °C 17 °C 1017.2 hPa SE 8 km/h 16.1 km/h 66% 0 mm
16:30 23.8 °C 17.1 °C 1017.2 hPa ESE 8 km/h 14.5 km/h 66% 0 mm
16:36 23.8 °C 16.6 °C 1017.2 hPa SE 9.7 km/h 16.1 km/h 64% 0 mm
16:41 23.8 °C 16.6 °C 1017.2 hPa SE 11.3 km/h 20.9 km/h 64% 0 mm
16:46 23.8 °C 16.6 °C 1017.2 hPa SE 9.7 km/h 16.1 km/h 64% 0 mm
16:51 23.7 °C 16.8 °C 1017.2 hPa SE 8 km/h 14.5 km/h 65% 0 mm
16:56 23.7 °C 16.8 °C 1017.2 hPa SSE 6.4 km/h 11.3 km/h 65% 0 mm
17:01 23.6 °C 17.1 °C 1017.2 hPa SSE 3.2 km/h 9.7 km/h 67% 0 mm
17:06 23.5 °C 16.8 °C 1017.2 hPa SSE 3.2 km/h 9.7 km/h 66% 0 mm
17:11 23.4 °C 16.9 °C 1016.8 hPa SE 3.2 km/h 11.3 km/h 67% 0 mm
17:16 23.2 °C 17 °C 1016.8 hPa SE 4.8 km/h 8 km/h 68% 0 mm
17:21 23.1 °C 16.8 °C 1016.8 hPa SE 4.8 km/h 8 km/h 68% 0 mm
17:26 23.1 °C 17.3 °C 1016.8 hPa East 4.8 km/h 9.7 km/h 70% 0 mm
17:31 22.9 °C 17.2 °C 1016.8 hPa SE 6.4 km/h 9.7 km/h 70% 0 mm
17:36 22.9 °C 17.3 °C 1016.8 hPa SE 6.4 km/h 9.7 km/h 71% 0 mm
17:41 22.7 °C 17.4 °C 1016.8 hPa SE 3.2 km/h 8 km/h 72% 0 mm
17:46 22.6 °C 17.5 °C 1016.8 hPa SE 3.2 km/h 4.8 km/h 73% 0 mm
17:51 22.4 °C 17.6 °C 1016.8 hPa Calm   3.2 km/h 74% 0 mm
17:56 22.3 °C 17.7 °C 1016.8 hPa ESE 1.6 km/h 1.6 km/h 75% 0 mm
18:01 22.2 °C 18.2 °C 1016.8 hPa SE 4.8 km/h 4.8 km/h 78% 0 mm
18:06 21.8 °C 18 °C 1017.2 hPa ESE 9.7 km/h 16.1 km/h 79% 0 mm
18:11 20.9 °C 17.8 °C 1017.2 hPa East 6.4 km/h 12.9 km/h 82% 0 mm
18:17 20.5 °C 17.7 °C 1017.2 hPa ESE 11.3 km/h 12.9 km/h 84% 0 mm
18:22 20.3 °C 17.7 °C 1017.2 hPa ESE 8 km/h 12.9 km/h 85% 0 mm
18:27 20.1 °C 17.7 °C 1017.2 hPa SE 11.3 km/h 17.7 km/h 86% 0 mm
18:32 19.8 °C 17.7 °C 1017.5 hPa SE 11.3 km/h 17.7 km/h 88% 16.76 mm
18:37 19.4 °C 17.6 °C 1017.8 hPa SE 8 km/h 14.5 km/h 89% 15.75 mm
18:42 19.1 °C 17.6 °C 1017.8 hPa SE 6.4 km/h 11.3 km/h 91% 6.86 mm
18:47 18.9 °C 17.4 °C 1017.5 hPa ESE 6.4 km/h 8 km/h 91% 6.35 mm
18:52 18.7 °C 17.4 °C 1017.8 hPa ESE 4.8 km/h 8 km/h 92% 10.67 mm
18:57 18.6 °C 17.3 °C 1017.5 hPa ESE 3.2 km/h 4.8 km/h 92% 16 mm
19:02 18.6 °C 17.2 °C 1017.8 hPa SE 6.4 km/h 9.7 km/h 92% 10.41 mm
19:07 18.6 °C 17.4 °C 1017.8 hPa East 4.8 km/h 6.4 km/h 93% 11.68 mm
19:13 18.5 °C 17.3 °C 1017.5 hPa East 3.2 km/h 8 km/h 93% 7.62 mm
19:18 18.4 °C 17.3 °C 1017.8 hPa East 3.2 km/h 8 km/h 93% 8.89 mm
19:23 18.4 °C 17.3 °C 1017.8 hPa East 1.6 km/h 3.2 km/h 93% 6.1 mm
19:28 18.4 °C 17.3 °C 1017.8 hPa ENE 3.2 km/h 3.2 km/h 93% 3.56 mm
19:33 18.4 °C 17.3 °C 1017.8 hPa East 1.6 km/h 3.2 km/h 93% 1.78 mm
19:38 18.4 °C 17.3 °C 1017.8 hPa East 1.6 km/h 1.6 km/h 93% 3.3 mm
19:43 18.4 °C 17.3 °C 1017.5 hPa East 1.6 km/h 3.2 km/h 93% 12.95 mm
19:48 18.4 °C 17.3 °C 1017.5 hPa ESE 1.6 km/h 6.4 km/h 93% 4.06 mm
19:53 18.4 °C 17.2 °C 1017.5 hPa ESE 1.6 km/h 6.4 km/h 93% 5.33 mm
19:58 18.4 °C 17.2 °C 1017.5 hPa East 3.2 km/h 4.8 km/h 93% 3.81 mm
20:03 18.4 °C 17.2 °C 1017.5 hPa ESE 1.6 km/h 4.8 km/h 93% 2.79 mm
20:08 18.4 °C 17.2 °C 1017.8 hPa Calm   4.8 km/h 93% 1.78 mm
20:13 18.4 °C 17.2 °C 1017.8 hPa East 6.4 km/h 6.4 km/h 93% 4.06 mm
20:18 18.4 °C 17.2 °C 1017.8 hPa East 3.2 km/h 3.2 km/h 93% 5.33 mm
20:23 18.3 °C 17.2 °C 1017.8 hPa ENE 1.6 km/h 3.2 km/h 93% 8.64 mm
20:28 18.3 °C 17.2 °C 1017.8 hPa NE 1.6 km/h 4.8 km/h 93% 12.45 mm
20:33 18.3 °C 17.2 °C 1017.5 hPa ENE 3.2 km/h 6.4 km/h 93% 5.08 mm
20:38 18.3 °C 17.2 °C 1017.8 hPa NE 1.6 km/h 4.8 km/h 93% 5.08 mm
20:43 18.3 °C 17.1 °C 1017.8 hPa ENE 1.6 km/h 4.8 km/h 93% 5.84 mm
20:48 18.3 °C 17.1 °C 1017.8 hPa East 1.6 km/h 3.2 km/h 93% 8.89 mm
20:53 18.3 °C 17.1 °C 1017.8 hPa Calm   3.2 km/h 93% 7.62 mm
20:58 18.3 °C 17.1 °C 1017.8 hPa ESE 1.6 km/h 4.8 km/h 93% 5.84 mm
21:03 18.2 °C 17.1 °C 1017.8 hPa East 3.2 km/h 6.4 km/h 93% 2.54 mm
21:08 18.2 °C 17.1 °C 1017.8 hPa ENE 3.2 km/h 9.7 km/h 93% 2.54 mm
21:13 18.2 °C 17.1 °C 1017.8 hPa ENE 3.2 km/h 4.8 km/h 93% 1.52 mm
21:18 18.2 °C 17.1 °C 1017.8 hPa East 3.2 km/h 8 km/h 93% 1.02 mm
21:23 18.2 °C 17.1 °C 1017.8 hPa East 4.8 km/h 6.4 km/h 93% 1.02 mm
21:28 18.1 °C 16.9 °C 1017.8 hPa East 3.2 km/h 9.7 km/h 93% 1.02 mm
21:33 18.1 °C 16.9 °C 1017.8 hPa East 3.2 km/h 8 km/h 93% 1.02 mm
21:38 18 °C 16.8 °C 1017.8 hPa East 8 km/h 8 km/h 93% 0 mm
21:43 18 °C 16.8 °C 1017.8 hPa ENE 3.2 km/h 8 km/h 93% 0 mm
21:49 17.9 °C 16.8 °C 1017.8 hPa ENE 4.8 km/h 6.4 km/h 93% 0 mm
21:54 17.9 °C 16.8 °C 1017.8 hPa East 3.2 km/h 4.8 km/h 93% 0 mm
21:59 17.9 °C 16.7 °C 1017.8 hPa East 3.2 km/h 8 km/h 93% 0 mm
22:04 17.9 °C 16.7 °C 1018.2 hPa SE 4.8 km/h 4.8 km/h 93% 0 mm
22:09 17.8 °C 16.7 °C 1018.2 hPa East 3.2 km/h 6.4 km/h 93% 0 mm
22:14 17.8 °C 16.7 °C 1018.2 hPa ESE 3.2 km/h 9.7 km/h 93% 0 mm
22:19 17.8 °C 16.7 °C 1018.2 hPa East 1.6 km/h 3.2 km/h 93% 0 mm
22:24 17.8 °C 16.6 °C 1018.2 hPa ESE 4.8 km/h 6.4 km/h 93% 0 mm
22:29 17.8 °C 16.6 °C 1018.2 hPa East 3.2 km/h 4.8 km/h 93% 0 mm
22:34 17.7 °C 16.6 °C 1018.2 hPa ESE 4.8 km/h 6.4 km/h 93% 0 mm
22:39 17.7 °C 16.6 °C 1018.2 hPa ENE 3.2 km/h 4.8 km/h 93% 0 mm
22:44 17.7 °C 16.5 °C 1018.2 hPa East 3.2 km/h 4.8 km/h 93% 0 mm
22:49 17.7 °C 16.5 °C 1018.2 hPa East 1.6 km/h 3.2 km/h 93% 0 mm
22:54 17.6 °C 16.4 °C 1018.2 hPa ESE 4.8 km/h 4.8 km/h 93% 0 mm
22:59 17.6 °C 16.4 °C 1018.2 hPa East 1.6 km/h 8 km/h 93% 0 mm
23:04 17.6 °C 16.4 °C 1018.2 hPa SE 1.6 km/h 4.8 km/h 93% 0 mm
23:09 17.7 °C 16.5 °C 1018.2 hPa East 3.2 km/h 3.2 km/h 93% 0 mm
23:14 17.7 °C 16.5 °C 1018.2 hPa East 1.6 km/h 3.2 km/h 93% 0 mm
23:19 17.7 °C 16.5 °C 1018.2 hPa ESE 6.4 km/h 6.4 km/h 93% 0 mm
23:24 17.7 °C 16.5 °C 1018.2 hPa East 1.6 km/h 4.8 km/h 93% 0 mm
23:29 17.7 °C 16.5 °C 1018.2 hPa ESE 1.6 km/h 3.2 km/h 93% 0 mm
23:34 17.6 °C 16.4 °C 1018.2 hPa ESE 3.2 km/h 3.2 km/h 93% 0 mm
23:39 17.6 °C 16.4 °C 1018.2 hPa East 1.6 km/h 3.2 km/h 93% 0 mm
23:44 17.6 °C 16.4 °C 1018.2 hPa ESE 1.6 km/h 3.2 km/h 93% 0 mm
23:50 17.6 °C 16.4 °C 1018.2 hPa East 1.6 km/h 4.8 km/h 93% 0 mm
23:55 17.6 °C 16.4 °C 1017.8 hPa ENE 3.2 km/h 3.2 km/h 93% 0 mm
Compliments of Weather Underground